sensor_id;sensor_type;location;lat;lon;timestamp;P1;durP1;ratioP1;P2;durP2;ratioP2
27365;SDS011;14837;57.148;-2.144;2022-08-19T00:01:40;2.58;;;1.40;;
27365;SDS011;14837;57.148;-2.144;2022-08-19T00:04:08;2.65;;;1.20;;
27365;SDS011;14837;57.148;-2.144;2022-08-19T00:06:36;5.53;;;1.65;;
27365;SDS011;14837;57.148;-2.144;2022-08-19T00:09:05;2.53;;;1.42;;
27365;SDS011;14837;57.148;-2.144;2022-08-19T00:11:32;4.32;;;1.58;;
27365;SDS011;14837;57.148;-2.144;2022-08-19T00:14:02;6.57;;;1.33;;
27365;SDS011;14837;57.148;-2.144;2022-08-19T00:16:29;5.63;;;1.30;;
27365;SDS011;14837;57.148;-2.144;2022-08-19T00:18:55;5.95;;;1.50;;
27365;SDS011;14837;57.148;-2.144;2022-08-19T00:21:22;3.50;;;1.10;;
27365;SDS011;14837;57.148;-2.144;2022-08-19T00:23:49;4.53;;;1.35;;
27365;SDS011;14837;57.148;-2.144;2022-08-19T00:26:16;5.05;;;1.25;;
27365;SDS011;14837;57.148;-2.144;2022-08-19T00:28:43;7.88;;;1.50;;
27365;SDS011;14837;57.148;-2.144;2022-08-19T00:31:09;6.63;;;1.92;;
27365;SDS011;14837;57.148;-2.144;2022-08-19T00:33:36;3.38;;;1.10;;
27365;SDS011;14837;57.148;-2.144;2022-08-19T00:36:04;4.63;;;1.45;;
27365;SDS011;14837;57.148;-2.144;2022-08-19T00:38:33;5.65;;;1.52;;
27365;SDS011;14837;57.148;-2.144;2022-08-19T00:41:03;7.78;;;2.22;;
27365;SDS011;14837;57.148;-2.144;2022-08-19T00:43:31;4.15;;;1.58;;
27365;SDS011;14837;57.148;-2.144;2022-08-19T00:45:57;3.78;;;1.63;;
27365;SDS011;14837;57.148;-2.144;2022-08-19T00:48:24;2.50;;;1.50;;
27365;SDS011;14837;57.148;-2.144;2022-08-19T00:50:51;4.90;;;1.10;;
27365;SDS011;14837;57.148;-2.144;2022-08-19T00:53:20;2.70;;;1.33;;
27365;SDS011;14837;57.148;-2.144;2022-08-19T00:55:48;4.10;;;1.77;;
27365;SDS011;14837;57.148;-2.144;2022-08-19T00:58:17;6.05;;;1.73;;
27365;SDS011;14837;57.148;-2.144;2022-08-19T01:00:44;4.95;;;1.65;;
27365;SDS011;14837;57.148;-2.144;2022-08-19T01:03:12;4.90;;;1.92;;
27365;SDS011;14837;57.148;-2.144;2022-08-19T01:05:39;5.15;;;1.48;;
27365;SDS011;14837;57.148;-2.144;2022-08-19T01:08:07;4.72;;;1.40;;
27365;SDS011;14837;57.148;-2.144;2022-08-19T01:10:40;1.90;;;1.10;;
27365;SDS011;14837;57.148;-2.144;2022-08-19T01:13:08;6.57;;;1.50;;
27365;SDS011;14837;57.148;-2.144;2022-08-19T01:15:45;4.13;;;1.38;;
27365;SDS011;14837;57.148;-2.144;2022-08-19T01:18:13;8.00;;;1.92;;
27365;SDS011;14837;57.148;-2.144;2022-08-19T01:20:41;9.10;;;1.77;;
27365;SDS011;14837;57.148;-2.144;2022-08-19T01:23:08;5.88;;;1.98;;
27365;SDS011;14837;57.148;-2.144;2022-08-19T01:25:36;9.75;;;1.98;;
27365;SDS011;14837;57.148;-2.144;2022-08-19T01:28:05;5.15;;;1.45;;
27365;SDS011;14837;57.148;-2.144;2022-08-19T01:30:36;8.07;;;1.65;;
27365;SDS011;14837;57.148;-2.144;2022-08-19T01:33:03;6.55;;;2.20;;
27365;SDS011;14837;57.148;-2.144;2022-08-19T01:35:31;3.85;;;1.42;;
27365;SDS011;14837;57.148;-2.144;2022-08-19T01:38:01;2.70;;;1.25;;
27365;SDS011;14837;57.148;-2.144;2022-08-19T01:40:29;3.53;;;1.42;;
27365;SDS011;14837;57.148;-2.144;2022-08-19T01:42:57;7.85;;;2.72;;
27365;SDS011;14837;57.148;-2.144;2022-08-19T01:45:24;6.35;;;2.13;;
27365;SDS011;14837;57.148;-2.144;2022-08-19T01:47:51;7.13;;;2.03;;
27365;SDS011;14837;57.148;-2.144;2022-08-19T01:50:28;7.82;;;2.20;;
27365;SDS011;14837;57.148;-2.144;2022-08-19T01:52:54;13.32;;;3.22;;
27365;SDS011;14837;57.148;-2.144;2022-08-19T01:55:31;5.70;;;2.10;;
27365;SDS011;14837;57.148;-2.144;2022-08-19T01:58:00;4.72;;;1.58;;
27365;SDS011;14837;57.148;-2.144;2022-08-19T02:00:28;8.98;;;1.88;;
27365;SDS011;14837;57.148;-2.144;2022-08-19T02:02:55;7.93;;;2.70;;
27365;SDS011;14837;57.148;-2.144;2022-08-19T02:05:23;4.38;;;2.08;;
27365;SDS011;14837;57.148;-2.144;2022-08-19T02:07:49;4.80;;;1.92;;
27365;SDS011;14837;57.148;-2.144;2022-08-19T02:10:18;8.88;;;2.00;;
27365;SDS011;14837;57.148;-2.144;2022-08-19T02:12:45;7.78;;;1.98;;
27365;SDS011;14837;57.148;-2.144;2022-08-19T02:15:13;5.72;;;1.70;;
27365;SDS011;14837;57.148;-2.144;2022-08-19T02:17:39;5.03;;;1.70;;
27365;SDS011;14837;57.148;-2.144;2022-08-19T02:20:06;8.40;;;1.90;;
27365;SDS011;14837;57.148;-2.144;2022-08-19T02:22:33;4.95;;;1.80;;
27365;SDS011;14837;57.148;-2.144;2022-08-19T02:25:01;5.78;;;2.15;;
27365;SDS011;14837;57.148;-2.144;2022-08-19T02:27:27;7.82;;;2.38;;
27365;SDS011;14837;57.148;-2.144;2022-08-19T02:29:54;9.35;;;2.15;;
27365;SDS011;14837;57.148;-2.144;2022-08-19T02:32:20;5.20;;;1.77;;
27365;SDS011;14837;57.148;-2.144;2022-08-19T02:34:47;5.13;;;1.55;;
27365;SDS011;14837;57.148;-2.144;2022-08-19T02:37:14;9.27;;;2.83;;
27365;SDS011;14837;57.148;-2.144;2022-08-19T02:40:00;6.50;;;1.73;;
27365;SDS011;14837;57.148;-2.144;2022-08-19T02:42:28;5.07;;;1.50;;
27365;SDS011;14837;57.148;-2.144;2022-08-19T02:44:55;7.13;;;2.38;;
27365;SDS011;14837;57.148;-2.144;2022-08-19T02:47:22;4.70;;;1.88;;
27365;SDS011;14837;57.148;-2.144;2022-08-19T02:49:48;8.10;;;3.28;;
27365;SDS011;14837;57.148;-2.144;2022-08-19T02:52:16;5.10;;;1.80;;
27365;SDS011;14837;57.148;-2.144;2022-08-19T02:54:42;5.28;;;1.98;;
27365;SDS011;14837;57.148;-2.144;2022-08-19T02:57:10;7.60;;;2.45;;
27365;SDS011;14837;57.148;-2.144;2022-08-19T02:59:36;5.57;;;1.95;;
27365;SDS011;14837;57.148;-2.144;2022-08-19T03:02:03;5.50;;;2.28;;
27365;SDS011;14837;57.148;-2.144;2022-08-19T03:04:29;11.77;;;2.72;;
27365;SDS011;14837;57.148;-2.144;2022-08-19T03:06:56;6.25;;;1.65;;
27365;SDS011;14837;57.148;-2.144;2022-08-19T03:09:36;6.72;;;2.05;;
27365;SDS011;14837;57.148;-2.144;2022-08-19T03:12:03;10.13;;;2.92;;
27365;SDS011;14837;57.148;-2.144;2022-08-19T03:14:31;8.43;;;2.47;;
27365;SDS011;14837;57.148;-2.144;2022-08-19T03:16:58;9.30;;;2.60;;
27365;SDS011;14837;57.148;-2.144;2022-08-19T03:19:24;5.20;;;1.98;;
27365;SDS011;14837;57.148;-2.144;2022-08-19T03:21:51;6.53;;;1.80;;
27365;SDS011;14837;57.148;-2.144;2022-08-19T03:24:18;5.93;;;2.20;;
27365;SDS011;14837;57.148;-2.144;2022-08-19T03:26:47;8.32;;;2.13;;
27365;SDS011;14837;57.148;-2.144;2022-08-19T03:29:14;9.20;;;2.90;;
27365;SDS011;14837;57.148;-2.144;2022-08-19T03:31:53;4.45;;;1.67;;
27365;SDS011;14837;57.148;-2.144;2022-08-19T03:34:22;6.45;;;2.30;;
27365;SDS011;14837;57.148;-2.144;2022-08-19T03:36:55;8.40;;;2.20;;
27365;SDS011;14837;57.148;-2.144;2022-08-19T03:39:23;12.07;;;3.28;;
27365;SDS011;14837;57.148;-2.144;2022-08-19T03:41:51;6.35;;;2.47;;
27365;SDS011;14837;57.148;-2.144;2022-08-19T03:44:38;6.22;;;1.73;;
27365;SDS011;14837;57.148;-2.144;2022-08-19T03:47:05;4.15;;;1.67;;
27365;SDS011;14837;57.148;-2.144;2022-08-19T03:49:32;6.90;;;1.95;;
27365;SDS011;14837;57.148;-2.144;2022-08-19T03:51:59;4.40;;;1.70;;
27365;SDS011;14837;57.148;-2.144;2022-08-19T03:54:31;5.30;;;1.60;;
27365;SDS011;14837;57.148;-2.144;2022-08-19T03:56:57;4.13;;;1.60;;
27365;SDS011;14837;57.148;-2.144;2022-08-19T03:59:26;5.55;;;2.03;;
27365;SDS011;14837;57.148;-2.144;2022-08-19T04:01:54;6.32;;;1.90;;
27365;SDS011;14837;57.148;-2.144;2022-08-19T04:04:21;7.60;;;1.80;;
27365;SDS011;14837;57.148;-2.144;2022-08-19T04:06:48;3.42;;;1.70;;
27365;SDS011;14837;57.148;-2.144;2022-08-19T04:09:17;7.40;;;1.75;;
27365;SDS011;14837;57.148;-2.144;2022-08-19T04:11:52;7.18;;;2.05;;
27365;SDS011;14837;57.148;-2.144;2022-08-19T04:14:20;4.25;;;1.67;;
27365;SDS011;14837;57.148;-2.144;2022-08-19T04:16:48;6.22;;;1.67;;
27365;SDS011;14837;57.148;-2.144;2022-08-19T04:19:15;10.52;;;2.10;;
27365;SDS011;14837;57.148;-2.144;2022-08-19T04:21:43;3.30;;;1.35;;
27365;SDS011;14837;57.148;-2.144;2022-08-19T04:24:10;4.43;;;1.95;;
27365;SDS011;14837;57.148;-2.144;2022-08-19T04:26:37;6.20;;;2.03;;
27365;SDS011;14837;57.148;-2.144;2022-08-19T04:29:05;5.78;;;2.13;;
27365;SDS011;14837;57.148;-2.144;2022-08-19T04:31:37;7.63;;;2.20;;
27365;SDS011;14837;57.148;-2.144;2022-08-19T04:34:05;6.20;;;1.50;;
27365;SDS011;14837;57.148;-2.144;2022-08-19T04:36:33;7.68;;;2.38;;
27365;SDS011;14837;57.148;-2.144;2022-08-19T04:39:01;8.38;;;2.20;;
27365;SDS011;14837;57.148;-2.144;2022-08-19T04:41:28;7.45;;;2.22;;
27365;SDS011;14837;57.148;-2.144;2022-08-19T04:44:14;8.32;;;2.70;;
27365;SDS011;14837;57.148;-2.144;2022-08-19T04:46:40;10.07;;;2.42;;
27365;SDS011;14837;57.148;-2.144;2022-08-19T04:49:17;8.32;;;2.60;;
27365;SDS011;14837;57.148;-2.144;2022-08-19T04:51:45;9.07;;;1.98;;
27365;SDS011;14837;57.148;-2.144;2022-08-19T04:54:13;7.47;;;2.13;;
27365;SDS011;14837;57.148;-2.144;2022-08-19T04:56:51;7.07;;;2.50;;
27365;SDS011;14837;57.148;-2.144;2022-08-19T04:59:19;7.10;;;2.28;;
27365;SDS011;14837;57.148;-2.144;2022-08-19T05:01:46;8.18;;;2.40;;
27365;SDS011;14837;57.148;-2.144;2022-08-19T05:04:19;7.00;;;2.00;;
27365;SDS011;14837;57.148;-2.144;2022-08-19T05:06:49;7.55;;;3.05;;
27365;SDS011;14837;57.148;-2.144;2022-08-19T05:09:22;8.65;;;2.53;;
27365;SDS011;14837;57.148;-2.144;2022-08-19T05:11:48;9.63;;;2.58;;
27365;SDS011;14837;57.148;-2.144;2022-08-19T05:14:17;3.97;;;2.00;;
27365;SDS011;14837;57.148;-2.144;2022-08-19T05:16:43;9.10;;;2.53;;
27365;SDS011;14837;57.148;-2.144;2022-08-19T05:19:10;6.50;;;2.30;;
27365;SDS011;14837;57.148;-2.144;2022-08-19T05:21:59;8.30;;;2.20;;
27365;SDS011;14837;57.148;-2.144;2022-08-19T05:24:44;5.85;;;2.40;;
27365;SDS011;14837;57.148;-2.144;2022-08-19T05:27:31;6.07;;;1.98;;
27365;SDS011;14837;57.148;-2.144;2022-08-19T05:29:58;4.82;;;1.40;;
27365;SDS011;14837;57.148;-2.144;2022-08-19T05:32:25;7.53;;;2.42;;
27365;SDS011;14837;57.148;-2.144;2022-08-19T05:34:52;10.02;;;2.08;;
27365;SDS011;14837;57.148;-2.144;2022-08-19T05:37:18;5.43;;;2.10;;
27365;SDS011;14837;57.148;-2.144;2022-08-19T05:39:45;7.10;;;1.88;;
27365;SDS011;14837;57.148;-2.144;2022-08-19T05:42:16;10.40;;;2.33;;
27365;SDS011;14837;57.148;-2.144;2022-08-19T05:44:43;6.60;;;2.60;;
27365;SDS011;14837;57.148;-2.144;2022-08-19T05:47:11;7.93;;;2.08;;
27365;SDS011;14837;57.148;-2.144;2022-08-19T05:49:38;5.70;;;1.85;;
27365;SDS011;14837;57.148;-2.144;2022-08-19T05:52:05;3.05;;;1.80;;
27365;SDS011;14837;57.148;-2.144;2022-08-19T05:54:32;5.82;;;1.90;;
27365;SDS011;14837;57.148;-2.144;2022-08-19T05:56:59;6.28;;;2.20;;
27365;SDS011;14837;57.148;-2.144;2022-08-19T05:59:26;7.05;;;2.10;;
27365;SDS011;14837;57.148;-2.144;2022-08-19T06:01:53;9.90;;;1.75;;
27365;SDS011;14837;57.148;-2.144;2022-08-19T06:04:23;9.93;;;1.70;;
27365;SDS011;14837;57.148;-2.144;2022-08-19T06:06:52;9.35;;;2.40;;
27365;SDS011;14837;57.148;-2.144;2022-08-19T06:09:20;5.18;;;1.98;;
27365;SDS011;14837;57.148;-2.144;2022-08-19T06:11:48;9.45;;;1.98;;
27365;SDS011;14837;57.148;-2.144;2022-08-19T06:14:22;7.32;;;2.00;;
27365;SDS011;14837;57.148;-2.144;2022-08-19T06:16:53;8.48;;;2.17;;
27365;SDS011;14837;57.148;-2.144;2022-08-19T06:19:20;6.50;;;1.90;;
27365;SDS011;14837;57.148;-2.144;2022-08-19T06:21:48;6.63;;;2.15;;
27365;SDS011;14837;57.148;-2.144;2022-08-19T06:24:17;6.95;;;2.33;;
27365;SDS011;14837;57.148;-2.144;2022-08-19T06:26:45;6.47;;;2.05;;
27365;SDS011;14837;57.148;-2.144;2022-08-19T06:29:14;6.95;;;1.95;;
27365;SDS011;14837;57.148;-2.144;2022-08-19T06:31:50;10.75;;;3.22;;
27365;SDS011;14837;57.148;-2.144;2022-08-19T06:34:17;11.90;;;2.30;;
27365;SDS011;14837;57.148;-2.144;2022-08-19T06:36:46;11.77;;;1.92;;
27365;SDS011;14837;57.148;-2.144;2022-08-19T06:39:14;7.30;;;1.92;;
27365;SDS011;14837;57.148;-2.144;2022-08-19T06:41:44;8.05;;;2.17;;
27365;SDS011;14837;57.148;-2.144;2022-08-19T06:44:19;4.35;;;1.95;;
27365;SDS011;14837;57.148;-2.144;2022-08-19T06:46:45;9.18;;;2.70;;
27365;SDS011;14837;57.148;-2.144;2022-08-19T06:49:20;5.50;;;2.13;;
27365;SDS011;14837;57.148;-2.144;2022-08-19T06:51:47;15.07;;;2.30;;
27365;SDS011;14837;57.148;-2.144;2022-08-19T06:54:17;8.07;;;1.98;;
27365;SDS011;14837;57.148;-2.144;2022-08-19T06:56:45;6.93;;;1.98;;
27365;SDS011;14837;57.148;-2.144;2022-08-19T06:59:14;6.43;;;1.73;;
27365;SDS011;14837;57.148;-2.144;2022-08-19T07:01:43;6.32;;;1.77;;
27365;SDS011;14837;57.148;-2.144;2022-08-19T07:04:12;6.10;;;2.08;;
27365;SDS011;14837;57.148;-2.144;2022-08-19T07:06:40;8.27;;;1.73;;
27365;SDS011;14837;57.148;-2.144;2022-08-19T07:09:11;8.75;;;2.28;;
27365;SDS011;14837;57.148;-2.144;2022-08-19T07:11:37;7.25;;;1.95;;
27365;SDS011;14837;57.148;-2.144;2022-08-19T07:14:04;4.88;;;1.48;;
27365;SDS011;14837;57.148;-2.144;2022-08-19T07:16:45;5.22;;;2.17;;
27365;SDS011;14837;57.148;-2.144;2022-08-19T07:19:12;3.55;;;1.40;;
27365;SDS011;14837;57.148;-2.144;2022-08-19T07:21:41;5.28;;;1.60;;
27365;SDS011;14837;57.148;-2.144;2022-08-19T07:24:08;4.28;;;1.25;;
27365;SDS011;14837;57.148;-2.144;2022-08-19T07:26:37;4.22;;;1.60;;
27365;SDS011;14837;57.148;-2.144;2022-08-19T07:29:07;7.55;;;2.20;;
27365;SDS011;14837;57.148;-2.144;2022-08-19T07:31:34;5.30;;;1.85;;
27365;SDS011;14837;57.148;-2.144;2022-08-19T07:34:04;3.90;;;1.77;;
27365;SDS011;14837;57.148;-2.144;2022-08-19T07:36:35;6.03;;;1.80;;
27365;SDS011;14837;57.148;-2.144;2022-08-19T07:39:03;3.45;;;1.23;;
27365;SDS011;14837;57.148;-2.144;2022-08-19T07:41:30;7.47;;;1.30;;
27365;SDS011;14837;57.148;-2.144;2022-08-19T07:43:58;3.55;;;1.20;;
27365;SDS011;14837;57.148;-2.144;2022-08-19T07:46:25;3.35;;;1.42;;
27365;SDS011;14837;57.148;-2.144;2022-08-19T07:48:54;4.35;;;1.30;;
27365;SDS011;14837;57.148;-2.144;2022-08-19T07:51:21;5.03;;;1.48;;
27365;SDS011;14837;57.148;-2.144;2022-08-19T07:54:02;5.20;;;1.55;;
27365;SDS011;14837;57.148;-2.144;2022-08-19T07:56:29;3.83;;;1.25;;
27365;SDS011;14837;57.148;-2.144;2022-08-19T07:58:56;6.00;;;1.35;;
27365;SDS011;14837;57.148;-2.144;2022-08-19T08:01:24;5.43;;;1.63;;
27365;SDS011;14837;57.148;-2.144;2022-08-19T08:03:51;5.35;;;1.35;;
27365;SDS011;14837;57.148;-2.144;2022-08-19T08:06:37;5.32;;;1.48;;
27365;SDS011;14837;57.148;-2.144;2022-08-19T08:09:26;4.47;;;1.10;;
27365;SDS011;14837;57.148;-2.144;2022-08-19T08:11:58;1.63;;;1.00;;
27365;SDS011;14837;57.148;-2.144;2022-08-19T08:14:38;5.60;;;1.40;;
27365;SDS011;14837;57.148;-2.144;2022-08-19T08:17:09;4.32;;;1.17;;
27365;SDS011;14837;57.148;-2.144;2022-08-19T08:19:36;4.50;;;0.90;;
27365;SDS011;14837;57.148;-2.144;2022-08-19T08:22:03;2.65;;;1.40;;
27365;SDS011;14837;57.148;-2.144;2022-08-19T08:24:32;2.75;;;1.27;;
27365;SDS011;14837;57.148;-2.144;2022-08-19T08:27:00;3.38;;;1.45;;
27365;SDS011;14837;57.148;-2.144;2022-08-19T08:29:27;4.65;;;1.60;;
27365;SDS011;14837;57.148;-2.144;2022-08-19T08:32:00;4.70;;;1.33;;
27365;SDS011;14837;57.148;-2.144;2022-08-19T08:34:27;5.47;;;1.13;;
27365;SDS011;14837;57.148;-2.144;2022-08-19T08:36:54;4.55;;;0.93;;
27365;SDS011;14837;57.148;-2.144;2022-08-19T08:39:20;7.43;;;1.98;;
27365;SDS011;14837;57.148;-2.144;2022-08-19T08:44:48;5.10;;;1.33;;
27365;SDS011;14837;57.148;-2.144;2022-08-19T08:47:17;7.30;;;1.63;;
27365;SDS011;14837;57.148;-2.144;2022-08-19T08:49:46;3.67;;;1.17;;
27365;SDS011;14837;57.148;-2.144;2022-08-19T08:54:44;3.55;;;1.20;;
27365;SDS011;14837;57.148;-2.144;2022-08-19T08:57:27;2.03;;;1.02;;
27365;SDS011;14837;57.148;-2.144;2022-08-19T09:00:08;4.95;;;1.30;;
27365;SDS011;14837;57.148;-2.144;2022-08-19T09:02:41;5.38;;;2.10;;
27365;SDS011;14837;57.148;-2.144;2022-08-19T09:05:09;7.10;;;1.48;;
27365;SDS011;14837;57.148;-2.144;2022-08-19T09:15:13;5.32;;;1.98;;
27365;SDS011;14837;57.148;-2.144;2022-08-19T09:17:40;2.72;;;1.00;;
27365;SDS011;14837;57.148;-2.144;2022-08-19T09:22:37;7.53;;;1.67;;
27365;SDS011;14837;57.148;-2.144;2022-08-19T09:25:04;1.95;;;1.00;;
27365;SDS011;14837;57.148;-2.144;2022-08-19T09:27:31;4.35;;;1.30;;
27365;SDS011;14837;57.148;-2.144;2022-08-19T09:30:10;3.88;;;1.02;;
27365;SDS011;14837;57.148;-2.144;2022-08-19T09:32:37;2.92;;;0.90;;
27365;SDS011;14837;57.148;-2.144;2022-08-19T09:35:05;3.13;;;1.25;;
27365;SDS011;14837;57.148;-2.144;2022-08-19T09:37:34;4.43;;;1.30;;
27365;SDS011;14837;57.148;-2.144;2022-08-19T09:40:01;5.07;;;1.70;;
27365;SDS011;14837;57.148;-2.144;2022-08-19T09:42:27;3.90;;;1.17;;
27365;SDS011;14837;57.148;-2.144;2022-08-19T09:45:00;4.50;;;1.25;;
27365;SDS011;14837;57.148;-2.144;2022-08-19T09:47:30;5.45;;;0.98;;
27365;SDS011;14837;57.148;-2.144;2022-08-19T09:49:56;3.05;;;0.90;;
27365;SDS011;14837;57.148;-2.144;2022-08-19T09:52:24;3.55;;;0.93;;
27365;SDS011;14837;57.148;-2.144;2022-08-19T09:54:58;4.20;;;1.05;;
27365;SDS011;14837;57.148;-2.144;2022-08-19T09:57:24;3.92;;;1.25;;
27365;SDS011;14837;57.148;-2.144;2022-08-19T09:59:51;4.35;;;1.40;;
27365;SDS011;14837;57.148;-2.144;2022-08-19T10:02:17;2.10;;;0.70;;
27365;SDS011;14837;57.148;-2.144;2022-08-19T10:04:47;2.53;;;0.85;;
27365;SDS011;14837;57.148;-2.144;2022-08-19T10:07:32;3.92;;;0.80;;
27365;SDS011;14837;57.148;-2.144;2022-08-19T10:10:05;2.88;;;0.95;;
27365;SDS011;14837;57.148;-2.144;2022-08-19T10:12:33;5.32;;;1.17;;
27365;SDS011;14837;57.148;-2.144;2022-08-19T10:15:00;3.95;;;0.82;;
27365;SDS011;14837;57.148;-2.144;2022-08-19T10:17:27;5.78;;;1.27;;
27365;SDS011;14837;57.148;-2.144;2022-08-19T10:19:59;4.43;;;1.30;;
27365;SDS011;14837;57.148;-2.144;2022-08-19T10:22:26;3.22;;;0.88;;
27365;SDS011;14837;57.148;-2.144;2022-08-19T10:24:52;5.85;;;1.98;;
27365;SDS011;14837;57.148;-2.144;2022-08-19T10:27:19;2.08;;;0.90;;
27365;SDS011;14837;57.148;-2.144;2022-08-19T10:29:46;2.50;;;0.95;;
27365;SDS011;14837;57.148;-2.144;2022-08-19T10:32:13;4.18;;;1.20;;
27365;SDS011;14837;57.148;-2.144;2022-08-19T10:34:41;3.38;;;0.80;;
27365;SDS011;14837;57.148;-2.144;2022-08-19T10:37:14;2.45;;;0.85;;
27365;SDS011;14837;57.148;-2.144;2022-08-19T10:39:49;2.28;;;0.80;;
27365;SDS011;14837;57.148;-2.144;2022-08-19T10:42:15;1.83;;;0.70;;
27365;SDS011;14837;57.148;-2.144;2022-08-19T10:44:43;3.67;;;1.40;;
27365;SDS011;14837;57.148;-2.144;2022-08-19T10:47:10;2.55;;;0.70;;
27365;SDS011;14837;57.148;-2.144;2022-08-19T10:49:51;6.03;;;1.70;;
27365;SDS011;14837;57.148;-2.144;2022-08-19T10:52:38;2.10;;;0.80;;
27365;SDS011;14837;57.148;-2.144;2022-08-19T10:55:15;3.35;;;1.00;;
27365;SDS011;14837;57.148;-2.144;2022-08-19T10:58:00;2.97;;;1.00;;
27365;SDS011;14837;57.148;-2.144;2022-08-19T11:00:28;4.07;;;0.73;;
27365;SDS011;14837;57.148;-2.144;2022-08-19T11:02:55;3.15;;;0.90;;
27365;SDS011;14837;57.148;-2.144;2022-08-19T11:05:21;6.15;;;1.10;;
27365;SDS011;14837;57.148;-2.144;2022-08-19T11:07:49;2.53;;;0.85;;
27365;SDS011;14837;57.148;-2.144;2022-08-19T11:10:18;2.35;;;1.05;;
27365;SDS011;14837;57.148;-2.144;2022-08-19T11:12:47;3.10;;;0.98;;
27365;SDS011;14837;57.148;-2.144;2022-08-19T11:15:14;2.83;;;1.02;;
27365;SDS011;14837;57.148;-2.144;2022-08-19T11:17:41;3.65;;;1.30;;
27365;SDS011;14837;57.148;-2.144;2022-08-19T11:20:13;3.65;;;1.23;;
27365;SDS011;14837;57.148;-2.144;2022-08-19T11:22:40;4.63;;;1.08;;
27365;SDS011;14837;57.148;-2.144;2022-08-19T11:25:08;3.03;;;0.70;;
27365;SDS011;14837;57.148;-2.144;2022-08-19T11:27:37;3.25;;;0.70;;
27365;SDS011;14837;57.148;-2.144;2022-08-19T11:30:05;0.68;;;0.50;;
27365;SDS011;14837;57.148;-2.144;2022-08-19T11:32:33;4.00;;;0.98;;
27365;SDS011;14837;57.148;-2.144;2022-08-19T11:35:00;2.60;;;0.60;;
27365;SDS011;14837;57.148;-2.144;2022-08-19T11:37:27;2.85;;;1.13;;
27365;SDS011;14837;57.148;-2.144;2022-08-19T11:39:53;2.63;;;0.80;;
27365;SDS011;14837;57.148;-2.144;2022-08-19T11:42:20;1.80;;;0.98;;
27365;SDS011;14837;57.148;-2.144;2022-08-19T11:45:06;4.15;;;1.10;;
27365;SDS011;14837;57.148;-2.144;2022-08-19T11:47:32;1.80;;;0.77;;
27365;SDS011;14837;57.148;-2.144;2022-08-19T11:49:59;6.18;;;1.20;;
27365;SDS011;14837;57.148;-2.144;2022-08-19T11:52:25;3.42;;;0.68;;
27365;SDS011;14837;57.148;-2.144;2022-08-19T11:54:52;3.35;;;0.80;;
27365;SDS011;14837;57.148;-2.144;2022-08-19T11:57:19;2.92;;;0.90;;
27365;SDS011;14837;57.148;-2.144;2022-08-19T11:59:52;3.38;;;0.90;;
27365;SDS011;14837;57.148;-2.144;2022-08-19T12:02:19;3.10;;;0.90;;
27365;SDS011;14837;57.148;-2.144;2022-08-19T12:04:45;7.72;;;1.17;;
27365;SDS011;14837;57.148;-2.144;2022-08-19T12:07:12;2.30;;;0.90;;
27365;SDS011;14837;57.148;-2.144;2022-08-19T12:09:38;2.42;;;0.80;;
27365;SDS011;14837;57.148;-2.144;2022-08-19T12:12:08;4.22;;;1.05;;
27365;SDS011;14837;57.148;-2.144;2022-08-19T12:14:35;2.25;;;0.80;;
27365;SDS011;14837;57.148;-2.144;2022-08-19T12:17:02;4.50;;;0.70;;
27365;SDS011;14837;57.148;-2.144;2022-08-19T12:19:30;3.20;;;1.10;;
27365;SDS011;14837;57.148;-2.144;2022-08-19T12:22:00;2.83;;;0.88;;
27365;SDS011;14837;57.148;-2.144;2022-08-19T12:24:32;7.18;;;1.42;;
27365;SDS011;14837;57.148;-2.144;2022-08-19T12:26:59;1.92;;;0.80;;
27365;SDS011;14837;57.148;-2.144;2022-08-19T12:29:28;3.40;;;1.13;;
27365;SDS011;14837;57.148;-2.144;2022-08-19T12:31:56;5.95;;;1.35;;
27365;SDS011;14837;57.148;-2.144;2022-08-19T12:34:29;3.90;;;1.00;;
27365;SDS011;14837;57.148;-2.144;2022-08-19T12:36:57;3.50;;;0.95;;
27365;SDS011;14837;57.148;-2.144;2022-08-19T12:39:23;2.90;;;1.02;;
27365;SDS011;14837;57.148;-2.144;2022-08-19T12:41:50;3.05;;;0.90;;
27365;SDS011;14837;57.148;-2.144;2022-08-19T12:44:20;2.92;;;1.00;;
27365;SDS011;14837;57.148;-2.144;2022-08-19T12:46:57;3.40;;;1.20;;
27365;SDS011;14837;57.148;-2.144;2022-08-19T12:49:24;3.40;;;1.10;;
27365;SDS011;14837;57.148;-2.144;2022-08-19T12:52:11;4.10;;;1.10;;
27365;SDS011;14837;57.148;-2.144;2022-08-19T12:54:42;5.13;;;1.23;;
27365;SDS011;14837;57.148;-2.144;2022-08-19T12:57:09;3.90;;;1.52;;
27365;SDS011;14837;57.148;-2.144;2022-08-19T12:59:37;2.83;;;0.90;;
27365;SDS011;14837;57.148;-2.144;2022-08-19T13:02:04;3.85;;;1.30;;
27365;SDS011;14837;57.148;-2.144;2022-08-19T13:04:33;5.63;;;1.25;;
27365;SDS011;14837;57.148;-2.144;2022-08-19T13:07:06;2.97;;;1.00;;
27365;SDS011;14837;57.148;-2.144;2022-08-19T13:09:32;3.97;;;1.00;;
27365;SDS011;14837;57.148;-2.144;2022-08-19T13:11:59;5.22;;;1.50;;
27365;SDS011;14837;57.148;-2.144;2022-08-19T13:14:28;3.95;;;1.02;;
27365;SDS011;14837;57.148;-2.144;2022-08-19T13:16:58;5.47;;;1.65;;
27365;SDS011;14837;57.148;-2.144;2022-08-19T13:19:25;4.05;;;1.10;;
27365;SDS011;14837;57.148;-2.144;2022-08-19T13:21:52;3.17;;;1.08;;
27365;SDS011;14837;57.148;-2.144;2022-08-19T13:24:25;2.88;;;0.80;;
27365;SDS011;14837;57.148;-2.144;2022-08-19T13:26:59;6.13;;;1.57;;
27365;SDS011;14837;57.148;-2.144;2022-08-19T13:29:25;2.17;;;1.30;;
27365;SDS011;14837;57.148;-2.144;2022-08-19T13:32:11;2.05;;;0.70;;
27365;SDS011;14837;57.148;-2.144;2022-08-19T13:34:56;6.18;;;1.17;;
27365;SDS011;14837;57.148;-2.144;2022-08-19T13:37:23;1.50;;;0.77;;
27365;SDS011;14837;57.148;-2.144;2022-08-19T13:40:08;1.63;;;0.73;;
27365;SDS011;14837;57.148;-2.144;2022-08-19T13:42:41;2.33;;;0.75;;
27365;SDS011;14837;57.148;-2.144;2022-08-19T13:45:08;3.28;;;1.02;;
27365;SDS011;14837;57.148;-2.144;2022-08-19T13:47:35;3.53;;;1.38;;
27365;SDS011;14837;57.148;-2.144;2022-08-19T13:50:04;4.13;;;1.30;;
27365;SDS011;14837;57.148;-2.144;2022-08-19T13:52:31;1.90;;;0.70;;
27365;SDS011;14837;57.148;-2.144;2022-08-19T13:54:58;2.42;;;1.00;;
27365;SDS011;14837;57.148;-2.144;2022-08-19T13:57:24;1.98;;;0.70;;
27365;SDS011;14837;57.148;-2.144;2022-08-19T13:59:51;2.83;;;0.80;;
27365;SDS011;14837;57.148;-2.144;2022-08-19T14:02:18;4.28;;;0.95;;
27365;SDS011;14837;57.148;-2.144;2022-08-19T14:04:45;3.25;;;0.88;;
27365;SDS011;14837;57.148;-2.144;2022-08-19T14:07:11;3.20;;;0.90;;
27365;SDS011;14837;57.148;-2.144;2022-08-19T14:09:38;3.83;;;1.67;;
27365;SDS011;14837;57.148;-2.144;2022-08-19T14:12:04;3.95;;;1.10;;
27365;SDS011;14837;57.148;-2.144;2022-08-19T14:14:31;3.78;;;1.00;;
27365;SDS011;14837;57.148;-2.144;2022-08-19T14:16:58;4.25;;;1.10;;
27365;SDS011;14837;57.148;-2.144;2022-08-19T14:19:25;2.45;;;1.25;;
27365;SDS011;14837;57.148;-2.144;2022-08-19T14:21:55;2.40;;;1.13;;
27365;SDS011;14837;57.148;-2.144;2022-08-19T14:24:23;2.72;;;0.75;;
27365;SDS011;14837;57.148;-2.144;2022-08-19T14:26:50;2.42;;;0.98;;
27365;SDS011;14837;57.148;-2.144;2022-08-19T14:29:17;4.72;;;1.10;;
27365;SDS011;14837;57.148;-2.144;2022-08-19T14:31:43;2.92;;;1.23;;
27365;SDS011;14837;57.148;-2.144;2022-08-19T14:34:10;3.13;;;0.95;;
27365;SDS011;14837;57.148;-2.144;2022-08-19T14:36:38;2.33;;;0.95;;
27365;SDS011;14837;57.148;-2.144;2022-08-19T14:39:05;5.15;;;1.45;;
27365;SDS011;14837;57.148;-2.144;2022-08-19T14:41:33;2.60;;;1.10;;
27365;SDS011;14837;57.148;-2.144;2022-08-19T14:44:00;2.75;;;1.05;;
27365;SDS011;14837;57.148;-2.144;2022-08-19T14:46:27;6.15;;;1.15;;
27365;SDS011;14837;57.148;-2.144;2022-08-19T14:48:55;2.88;;;0.90;;
27365;SDS011;14837;57.148;-2.144;2022-08-19T14:51:22;2.67;;;1.05;;
27365;SDS011;14837;57.148;-2.144;2022-08-19T14:53:50;2.17;;;0.80;;
27365;SDS011;14837;57.148;-2.144;2022-08-19T14:56:19;2.95;;;1.00;;
27365;SDS011;14837;57.148;-2.144;2022-08-19T14:58:45;5.55;;;1.35;;
27365;SDS011;14837;57.148;-2.144;2022-08-19T15:01:13;2.20;;;0.75;;